createdAt,value
2019-05-06T00:02:13.776Z,2.87
2019-05-06T00:07:09.774Z,3.00
2019-05-06T00:12:06.428Z,2.80
2019-05-06T00:17:03.897Z,2.83
2019-05-06T00:22:00.133Z,3.07
2019-05-06T00:26:57.913Z,3.20
2019-05-06T00:31:54.038Z,2.80
2019-05-06T00:36:50.195Z,2.90
2019-05-06T00:41:48.128Z,2.73
2019-05-06T00:46:44.084Z,2.93
2019-05-06T00:51:40.122Z,2.70
2019-05-06T00:56:35.955Z,2.47
2019-05-06T01:01:34.231Z,2.27
2019-05-06T01:06:29.663Z,2.60
2019-05-06T01:11:25.804Z,2.30
2019-05-06T01:16:21.801Z,2.63
2019-05-06T01:21:17.863Z,2.20
2019-05-06T01:26:15.000Z,2.40
2019-05-06T01:31:11.394Z,2.60
2019-05-06T01:36:07.195Z,2.53
2019-05-06T01:41:14.458Z,2.63
2019-05-06T01:46:10.282Z,2.70
2019-05-06T01:51:06.384Z,3.50
2019-05-06T01:56:03.644Z,2.70
2019-05-06T02:01:00.718Z,2.63
2019-05-06T02:05:56.630Z,2.77
2019-05-06T02:15:48.580Z,2.83
2019-05-06T02:20:45.113Z,3.07
2019-05-06T02:25:44.657Z,2.93
2019-05-06T02:30:58.929Z,2.70
2019-05-06T02:35:59.818Z,3.23
2019-05-06T02:40:55.926Z,3.40
2019-05-06T02:45:53.174Z,3.33
2019-05-06T02:50:53.815Z,2.83
2019-05-06T02:55:48.990Z,2.57
2019-05-06T03:00:45.038Z,2.93
2019-05-06T03:05:43.784Z,3.17
2019-05-06T03:10:38.903Z,3.13
2019-05-06T03:15:34.722Z,3.27
2019-05-06T03:20:58.409Z,3.27
2019-05-06T03:25:54.247Z,3.67
2019-05-06T03:30:55.895Z,3.20
2019-05-06T03:36:04.402Z,3.10
2019-05-06T03:40:46.153Z,3.17
2019-05-06T03:45:53.689Z,3.73
2019-05-06T03:50:49.616Z,3.10
2019-05-06T03:55:47.197Z,3.27
2019-05-06T04:00:43.752Z,3.33
2019-05-06T04:05:40.189Z,3.53
2019-05-06T04:10:36.904Z,3.67
2019-05-06T04:15:53.957Z,3.00
2019-05-06T04:26:13.214Z,3.60
2019-05-06T04:31:07.851Z,3.67
2019-05-06T04:36:04.077Z,3.70
2019-05-06T04:41:02.936Z,3.30
2019-05-06T04:45:58.558Z,3.50
2019-05-06T04:50:54.495Z,3.60
2019-05-06T05:00:46.202Z,3.60
2019-05-06T05:05:44.504Z,3.83
2019-05-06T05:10:48.529Z,3.90
2019-05-06T05:16:02.824Z,4.00
2019-05-06T05:20:58.763Z,3.50
2019-05-06T05:25:54.813Z,3.47
2019-05-06T05:30:52.222Z,4.10
2019-05-06T05:35:48.280Z,3.90
2019-05-06T05:40:45.138Z,3.80
2019-05-06T05:45:42.396Z,3.80
2019-05-06T05:50:42.081Z,5.40
2019-05-06T05:55:37.947Z,3.70
2019-05-06T06:00:35.219Z,4.00
2019-05-06T06:05:33.011Z,3.90
2019-05-06T06:10:33.098Z,3.50
2019-05-06T06:15:47.660Z,4.07
2019-05-06T06:21:17.002Z,4.07
2019-05-06T06:26:04.035Z,4.10
2019-05-06T06:31:12.826Z,3.70
2019-05-06T06:36:27.163Z,3.67
2019-05-06T06:41:23.711Z,3.53
2019-05-06T06:46:19.863Z,3.43
2019-05-06T06:51:15.799Z,3.70
2019-05-06T06:56:25.564Z,3.70
2019-05-06T07:01:24.194Z,4.13
2019-05-06T07:11:22.507Z,4.23
2019-05-06T07:16:20.480Z,4.20
2019-05-06T07:21:18.531Z,4.10
2019-05-06T07:26:16.352Z,3.90
2019-05-06T07:31:21.109Z,4.50
2019-05-06T07:36:10.389Z,4.20
2019-05-06T07:41:08.684Z,3.90
2019-05-06T07:46:23.657Z,4.40
2019-05-06T07:51:19.484Z,4.07
2019-05-06T07:56:15.654Z,4.40
2019-05-06T08:01:13.604Z,3.90
2019-05-06T08:06:09.978Z,4.70
2019-05-06T08:11:05.898Z,4.80
2019-05-06T08:16:02.425Z,4.10
2019-05-06T08:21:02.331Z,4.73
2019-05-06T08:26:10.053Z,5.07
2019-05-06T08:30:55.934Z,5.70
2019-05-06T08:35:53.321Z,5.33
2019-05-06T08:40:52.581Z,6.07
2019-05-06T08:45:48.797Z,5.67
2019-05-06T08:50:52.969Z,5.60
2019-05-06T08:55:52.743Z,6.03
2019-05-06T09:00:57.215Z,5.50
2019-05-06T09:05:53.504Z,5.57
2019-05-06T09:10:51.974Z,5.30
2019-05-06T09:15:47.487Z,5.77
2019-05-06T09:20:43.522Z,5.80
2019-05-06T09:25:39.584Z,5.57
2019-05-06T09:30:52.606Z,5.57
2019-05-06T09:35:48.691Z,5.20
2019-05-06T09:40:44.565Z,5.03
2019-05-06T09:45:42.527Z,5.97
2019-05-06T09:50:45.484Z,5.37
2019-05-06T09:55:57.230Z,6.93
2019-05-06T10:00:54.961Z,5.80
2019-05-06T10:05:53.035Z,5.27
2019-05-06T10:10:56.720Z,5.83
2019-05-06T10:15:47.014Z,5.10
2019-05-06T10:20:44.795Z,4.73
2019-05-06T10:25:43.325Z,4.83
2019-05-06T10:30:38.714Z,4.47
2019-05-06T10:35:35.018Z,5.70
2019-05-06T10:40:44.021Z,3.97
2019-05-06T10:45:34.141Z,3.98
2019-05-06T10:50:31.877Z,4.53
2019-05-06T10:55:28.122Z,4.30
2019-05-06T11:00:24.282Z,3.67
2019-05-06T11:05:20.445Z,3.72
2019-05-06T11:10:24.418Z,3.70
2019-05-06T11:15:14.354Z,3.60
2019-05-06T11:20:13.217Z,3.00
2019-05-06T11:25:08.363Z,3.72
2019-05-06T11:30:06.724Z,3.60
2019-05-06T11:35:12.325Z,3.37
2019-05-06T11:40:08.743Z,3.80
2019-05-06T11:45:05.752Z,3.95
2019-05-06T11:50:02.501Z,4.08
2019-05-06T11:55:02.035Z,3.95
2019-05-06T11:59:57.458Z,4.92
2019-05-06T12:04:53.508Z,4.43
2019-05-06T12:09:49.434Z,4.57
2019-05-06T12:14:45.496Z,4.47
2019-05-06T12:19:43.274Z,4.80
2019-05-06T12:24:39.031Z,4.97
2019-05-06T12:29:34.888Z,5.03
2019-05-06T12:34:32.406Z,4.63
2019-05-06T12:39:28.849Z,4.30
2019-05-06T12:44:25.445Z,5.77
2019-05-06T12:49:21.362Z,5.20
2019-05-06T12:54:17.268Z,5.20
2019-05-06T12:59:13.225Z,5.37
2019-05-06T13:04:09.486Z,7.20
2019-05-06T13:09:06.166Z,16.77
2019-05-06T13:14:04.191Z,6.17
2019-05-06T13:19:03.088Z,5.30
2019-05-06T13:24:07.903Z,8.27
2019-05-06T13:29:06.976Z,5.90
2019-05-06T13:34:08.147Z,6.40
2019-05-06T13:39:13.894Z,6.80
2019-05-06T13:44:07.679Z,5.73
2019-05-06T13:49:05.509Z,5.17
2019-05-06T13:54:02.606Z,4.90
2019-05-06T13:58:58.483Z,4.67
2019-05-06T14:03:54.807Z,4.80
2019-05-06T14:08:52.848Z,4.63
2019-05-06T14:13:49.319Z,5.50
2019-05-06T14:18:45.248Z,4.70
2019-05-06T14:23:41.322Z,4.97
2019-05-06T14:28:48.073Z,4.40
2019-05-06T14:33:44.138Z,4.27
2019-05-06T14:38:42.792Z,4.13
2019-05-06T14:43:37.957Z,3.90
2019-05-06T14:48:33.809Z,3.80
2019-05-06T14:53:29.775Z,5.63
2019-05-06T14:58:25.622Z,5.80
2019-05-06T15:03:22.217Z,4.40
2019-05-06T15:08:18.166Z,5.53
2019-05-06T15:13:14.712Z,5.03
2019-05-06T15:18:12.673Z,5.17
2019-05-06T15:23:08.483Z,5.00
2019-05-06T15:28:04.681Z,5.50
2019-05-06T15:33:02.508Z,4.30
2019-05-06T15:38:02.267Z,4.50
2019-05-06T15:42:58.196Z,4.77
2019-05-06T15:47:54.140Z,4.93
2019-05-06T15:52:50.285Z,4.90
2019-05-06T15:57:46.125Z,4.50
2019-05-06T16:02:42.400Z,5.03
2019-05-06T16:07:38.322Z,4.03
2019-05-06T16:12:35.004Z,4.53
2019-05-06T16:17:32.811Z,4.70
2019-05-06T16:22:28.685Z,5.43
2019-05-06T16:27:24.740Z,4.47
2019-05-06T16:32:21.992Z,4.43
2019-05-06T16:37:18.475Z,4.40
2019-05-06T16:42:14.494Z,3.87
2019-05-06T16:47:12.319Z,4.23
2019-05-06T16:52:08.540Z,3.57
2019-05-06T16:57:06.384Z,3.80
2019-05-06T17:02:04.490Z,4.67
2019-05-06T17:07:02.940Z,4.60
2019-05-06T17:11:58.458Z,3.80
2019-05-06T17:16:54.433Z,3.83
2019-05-06T17:21:52.406Z,4.43
2019-05-06T17:26:48.458Z,4.80
2019-05-06T17:31:46.264Z,6.20
2019-05-06T17:36:42.402Z,3.83
2019-05-06T17:41:46.073Z,4.13
2019-05-06T17:46:53.460Z,5.40
2019-05-06T17:51:51.987Z,4.30
2019-05-06T17:56:49.100Z,4.53
2019-05-06T18:01:46.832Z,4.07
2019-05-06T18:06:43.052Z,4.30
2019-05-06T18:11:38.976Z,4.43
2019-05-06T18:16:35.208Z,4.50
2019-05-06T18:21:31.137Z,4.43
2019-05-06T18:26:27.156Z,4.37
2019-05-06T18:31:23.355Z,4.27
2019-05-06T18:36:19.551Z,4.30
2019-05-06T18:41:15.504Z,4.20
2019-05-06T18:46:12.194Z,5.13
2019-05-06T18:51:08.213Z,5.60
2019-05-06T18:56:04.599Z,4.57
2019-05-06T19:01:00.650Z,5.30
2019-05-06T19:05:56.665Z,4.70
2019-05-06T19:10:53.186Z,4.10
2019-05-06T19:15:49.372Z,4.80
2019-05-06T19:20:45.322Z,5.97
2019-05-06T19:25:42.850Z,6.33
2019-05-06T19:30:38.860Z,4.77
2019-05-06T19:35:37.106Z,4.60
2019-05-06T19:40:32.494Z,6.90
2019-05-06T19:45:29.497Z,12.83
2019-05-06T19:50:26.036Z,4.70
2019-05-06T19:55:23.120Z,4.57
2019-05-06T20:00:20.226Z,4.10
2019-05-06T20:05:32.973Z,4.40
2019-05-06T20:10:32.701Z,4.80
2019-05-06T20:15:35.190Z,4.30
2019-05-06T20:20:34.340Z,4.80
2019-05-06T20:25:28.978Z,4.90
2019-05-06T20:30:24.793Z,4.90
2019-05-06T20:35:22.403Z,4.67
2019-05-06T20:40:18.415Z,4.60
2019-05-06T20:45:14.426Z,4.43
2019-05-06T20:50:13.125Z,6.13
2019-05-06T20:55:12.529Z,10.67
2019-05-06T21:00:07.473Z,8.30
2019-05-06T21:05:05.503Z,5.83
2019-05-06T21:10:02.294Z,5.97
2019-05-06T21:14:58.473Z,4.60
2019-05-06T21:19:54.420Z,4.80
2019-05-06T21:24:50.834Z,4.97
2019-05-06T21:29:46.699Z,4.90
2019-05-06T21:34:43.282Z,4.70
2019-05-06T21:39:42.161Z,4.93
2019-05-06T21:44:37.725Z,5.30
2019-05-06T21:49:33.725Z,4.70
2019-05-06T21:54:29.791Z,4.83
2019-05-06T21:59:25.627Z,5.03
2019-05-06T22:04:23.157Z,4.77
2019-05-06T22:09:19.411Z,4.97
2019-05-06T22:14:15.551Z,5.50
2019-05-06T22:19:12.104Z,5.43
2019-05-06T22:24:08.407Z,4.97
2019-05-06T22:29:04.231Z,5.57
2019-05-06T22:34:00.666Z,5.10
2019-05-06T22:38:57.080Z,5.80
2019-05-06T22:43:53.344Z,5.67
2019-05-06T22:48:49.290Z,5.40
2019-05-06T22:53:45.457Z,5.10
2019-05-06T22:58:42.769Z,5.07
2019-05-06T23:03:39.082Z,5.43
2019-05-06T23:08:34.897Z,4.73
2019-05-06T23:13:30.966Z,5.63
2019-05-06T23:18:26.958Z,6.50
2019-05-06T23:23:23.114Z,5.53
2019-05-06T23:28:18.958Z,6.27
2019-05-06T23:33:15.065Z,6.10
2019-05-06T23:38:29.736Z,5.57
2019-05-06T23:43:44.086Z,5.43
2019-05-06T23:48:58.428Z,5.57
2019-05-06T23:59:13.241Z,5.70
